sensor_id;sensor_type;location;lat;lon;timestamp;P1;durP1;ratioP1;P2;durP2;ratioP2
33152;SDS011;19509;43.862;26.176;2022-09-27T00:02:00;1.90;;;1.80;;
33152;SDS011;19509;43.862;26.176;2022-09-27T00:04:26;1.70;;;1.60;;
33152;SDS011;19509;43.862;26.176;2022-09-27T00:06:52;1.70;;;1.70;;
33152;SDS011;19509;43.862;26.176;2022-09-27T00:09:18;1.70;;;1.70;;
33152;SDS011;19509;43.862;26.176;2022-09-27T00:11:44;1.57;;;1.57;;
33152;SDS011;19509;43.862;26.176;2022-09-27T00:14:11;1.50;;;1.50;;
33152;SDS011;19509;43.862;26.176;2022-09-27T00:16:38;1.70;;;1.57;;
33152;SDS011;19509;43.862;26.176;2022-09-27T00:19:06;3.10;;;1.90;;
33152;SDS011;19509;43.862;26.176;2022-09-27T00:21:35;1.50;;;1.50;;
33152;SDS011;19509;43.862;26.176;2022-09-27T00:24:01;1.70;;;1.67;;
33152;SDS011;19509;43.862;26.176;2022-09-27T00:26:27;1.60;;;1.60;;
33152;SDS011;19509;43.862;26.176;2022-09-27T00:28:53;1.60;;;1.60;;
33152;SDS011;19509;43.862;26.176;2022-09-27T00:31:20;1.70;;;1.70;;
33152;SDS011;19509;43.862;26.176;2022-09-27T00:33:47;1.50;;;1.50;;
33152;SDS011;19509;43.862;26.176;2022-09-27T00:36:13;1.70;;;1.60;;
33152;SDS011;19509;43.862;26.176;2022-09-27T00:38:39;1.53;;;1.50;;
33152;SDS011;19509;43.862;26.176;2022-09-27T00:41:05;1.53;;;1.53;;
33152;SDS011;19509;43.862;26.176;2022-09-27T00:43:47;2.10;;;2.00;;
33152;SDS011;19509;43.862;26.176;2022-09-27T00:46:18;1.73;;;1.73;;
33152;SDS011;19509;43.862;26.176;2022-09-27T00:48:58;2.00;;;1.90;;
33152;SDS011;19509;43.862;26.176;2022-09-27T00:51:31;1.83;;;1.77;;
33152;SDS011;19509;43.862;26.176;2022-09-27T00:53:59;1.80;;;1.80;;
33152;SDS011;19509;43.862;26.176;2022-09-27T00:56:26;1.93;;;1.90;;
33152;SDS011;19509;43.862;26.176;2022-09-27T00:59:07;1.73;;;1.70;;
33152;SDS011;19509;43.862;26.176;2022-09-27T01:01:38;1.73;;;1.63;;
33152;SDS011;19509;43.862;26.176;2022-09-27T01:04:10;1.90;;;1.90;;
33152;SDS011;19509;43.862;26.176;2022-09-27T01:06:38;1.93;;;1.90;;
33152;SDS011;19509;43.862;26.176;2022-09-27T01:09:04;1.80;;;1.80;;
33152;SDS011;19509;43.862;26.176;2022-09-27T01:14:07;2.00;;;1.90;;
33152;SDS011;19509;43.862;26.176;2022-09-27T01:22:28;3.17;;;2.00;;
33152;SDS011;19509;43.862;26.176;2022-09-27T01:31:27;2.10;;;2.10;;
33152;SDS011;19509;43.862;26.176;2022-09-27T01:34:17;2.20;;;2.20;;
33152;SDS011;19509;43.862;26.176;2022-09-27T01:42:11;2.00;;;1.90;;
33152;SDS011;19509;43.862;26.176;2022-09-27T01:44:40;1.97;;;1.87;;
33152;SDS011;19509;43.862;26.176;2022-09-27T01:47:11;1.80;;;1.80;;
33152;SDS011;19509;43.862;26.176;2022-09-27T01:52:44;1.87;;;1.83;;
33152;SDS011;19509;43.862;26.176;2022-09-27T01:55:15;1.60;;;1.60;;
33152;SDS011;19509;43.862;26.176;2022-09-27T01:57:46;1.80;;;1.80;;
33152;SDS011;19509;43.862;26.176;2022-09-27T02:00:19;2.30;;;1.90;;
33152;SDS011;19509;43.862;26.176;2022-09-27T02:05:13;1.90;;;1.90;;
33152;SDS011;19509;43.862;26.176;2022-09-27T02:10:38;2.00;;;1.90;;
33152;SDS011;19509;43.862;26.176;2022-09-27T02:13:12;1.63;;;1.63;;
33152;SDS011;19509;43.862;26.176;2022-09-27T02:18:22;2.30;;;2.10;;
33152;SDS011;19509;43.862;26.176;2022-09-27T02:20:57;2.00;;;2.00;;
33152;SDS011;19509;43.862;26.176;2022-09-27T02:23:35;1.90;;;1.90;;
33152;SDS011;19509;43.862;26.176;2022-09-27T02:26:15;1.87;;;1.77;;
33152;SDS011;19509;43.862;26.176;2022-09-27T02:31:29;2.00;;;1.90;;
33152;SDS011;19509;43.862;26.176;2022-09-27T02:33:55;2.03;;;2.00;;
33152;SDS011;19509;43.862;26.176;2022-09-27T02:36:25;1.80;;;1.80;;
33152;SDS011;19509;43.862;26.176;2022-09-27T02:38:51;2.30;;;2.00;;
33152;SDS011;19509;43.862;26.176;2022-09-27T02:41:17;1.87;;;1.87;;
33152;SDS011;19509;43.862;26.176;2022-09-27T02:43:46;1.83;;;1.83;;
33152;SDS011;19509;43.862;26.176;2022-09-27T02:52:02;2.00;;;2.00;;
33152;SDS011;19509;43.862;26.176;2022-09-27T03:00:35;2.00;;;2.00;;
33152;SDS011;19509;43.862;26.176;2022-09-27T03:02:49;2.17;;;2.07;;
33152;SDS011;19509;43.862;26.176;2022-09-27T03:05:24;2.50;;;2.27;;
33152;SDS011;19509;43.862;26.176;2022-09-27T03:07:52;2.20;;;2.10;;
33152;SDS011;19509;43.862;26.176;2022-09-27T03:10:19;2.10;;;2.00;;
33152;SDS011;19509;43.862;26.176;2022-09-27T03:12:47;2.00;;;2.00;;
33152;SDS011;19509;43.862;26.176;2022-09-27T03:15:14;2.37;;;2.30;;
33152;SDS011;19509;43.862;26.176;2022-09-27T03:17:39;2.00;;;2.00;;
33152;SDS011;19509;43.862;26.176;2022-09-27T03:20:05;2.20;;;2.10;;
33152;SDS011;19509;43.862;26.176;2022-09-27T03:22:31;2.30;;;2.30;;
33152;SDS011;19509;43.862;26.176;2022-09-27T03:24:57;2.13;;;2.03;;
33152;SDS011;19509;43.862;26.176;2022-09-27T03:27:23;1.80;;;1.80;;
33152;SDS011;19509;43.862;26.176;2022-09-27T03:29:48;2.10;;;2.10;;
33152;SDS011;19509;43.862;26.176;2022-09-27T03:32:14;1.90;;;1.90;;
33152;SDS011;19509;43.862;26.176;2022-09-27T03:34:40;2.00;;;2.00;;
33152;SDS011;19509;43.862;26.176;2022-09-27T03:37:05;2.10;;;2.10;;
33152;SDS011;19509;43.862;26.176;2022-09-27T03:39:32;2.10;;;2.10;;
33152;SDS011;19509;43.862;26.176;2022-09-27T03:41:58;2.07;;;1.97;;
33152;SDS011;19509;43.862;26.176;2022-09-27T03:44:25;1.83;;;1.83;;
33152;SDS011;19509;43.862;26.176;2022-09-27T03:46:51;1.90;;;1.90;;
33152;SDS011;19509;43.862;26.176;2022-09-27T03:49:16;2.10;;;2.10;;
33152;SDS011;19509;43.862;26.176;2022-09-27T03:51:42;2.10;;;2.10;;
33152;SDS011;19509;43.862;26.176;2022-09-27T03:54:08;2.03;;;2.03;;
33152;SDS011;19509;43.862;26.176;2022-09-27T03:56:34;2.20;;;2.10;;
33152;SDS011;19509;43.862;26.176;2022-09-27T03:58:59;2.20;;;2.20;;
33152;SDS011;19509;43.862;26.176;2022-09-27T04:01:25;2.43;;;2.33;;
33152;SDS011;19509;43.862;26.176;2022-09-27T04:03:51;1.97;;;1.97;;
33152;SDS011;19509;43.862;26.176;2022-09-27T04:06:17;2.10;;;2.10;;
33152;SDS011;19509;43.862;26.176;2022-09-27T04:08:43;2.20;;;2.20;;
33152;SDS011;19509;43.862;26.176;2022-09-27T04:11:09;2.20;;;2.20;;
33152;SDS011;19509;43.862;26.176;2022-09-27T04:13:34;2.10;;;2.10;;
33152;SDS011;19509;43.862;26.176;2022-09-27T04:16:00;2.00;;;1.90;;
33152;SDS011;19509;43.862;26.176;2022-09-27T04:18:27;2.07;;;1.97;;
33152;SDS011;19509;43.862;26.176;2022-09-27T04:20:53;2.10;;;2.00;;
33152;SDS011;19509;43.862;26.176;2022-09-27T04:23:18;1.87;;;1.87;;
33152;SDS011;19509;43.862;26.176;2022-09-27T04:25:45;1.90;;;1.90;;
33152;SDS011;19509;43.862;26.176;2022-09-27T04:28:10;2.03;;;1.97;;
33152;SDS011;19509;43.862;26.176;2022-09-27T04:30:37;1.90;;;1.90;;
33152;SDS011;19509;43.862;26.176;2022-09-27T04:33:03;1.90;;;1.90;;
33152;SDS011;19509;43.862;26.176;2022-09-27T04:35:29;1.90;;;1.90;;
33152;SDS011;19509;43.862;26.176;2022-09-27T04:38:17;1.97;;;1.87;;
33152;SDS011;19509;43.862;26.176;2022-09-27T04:40:46;1.80;;;1.80;;
33152;SDS011;19509;43.862;26.176;2022-09-27T04:43:13;2.10;;;2.10;;
33152;SDS011;19509;43.862;26.176;2022-09-27T04:45:38;2.27;;;2.17;;
33152;SDS011;19509;43.862;26.176;2022-09-27T04:48:03;2.70;;;1.90;;
33152;SDS011;19509;43.862;26.176;2022-09-27T04:50:29;2.00;;;2.00;;
33152;SDS011;19509;43.862;26.176;2022-09-27T04:52:56;4.40;;;1.90;;
33152;SDS011;19509;43.862;26.176;2022-09-27T04:55:21;1.93;;;1.93;;
33152;SDS011;19509;43.862;26.176;2022-09-27T04:57:47;2.30;;;2.20;;
33152;SDS011;19509;43.862;26.176;2022-09-27T05:00:13;3.80;;;2.13;;
33152;SDS011;19509;43.862;26.176;2022-09-27T05:02:41;2.00;;;2.00;;
33152;SDS011;19509;43.862;26.176;2022-09-27T05:05:07;2.10;;;2.10;;
33152;SDS011;19509;43.862;26.176;2022-09-27T05:07:34;1.93;;;1.93;;
33152;SDS011;19509;43.862;26.176;2022-09-27T05:10:02;2.20;;;2.20;;
33152;SDS011;19509;43.862;26.176;2022-09-27T05:12:28;2.20;;;2.20;;
33152;SDS011;19509;43.862;26.176;2022-09-27T05:14:54;2.10;;;2.10;;
33152;SDS011;19509;43.862;26.176;2022-09-27T05:17:19;2.07;;;2.07;;
33152;SDS011;19509;43.862;26.176;2022-09-27T05:19:46;2.00;;;2.00;;
33152;SDS011;19509;43.862;26.176;2022-09-27T05:22:12;2.10;;;2.00;;
33152;SDS011;19509;43.862;26.176;2022-09-27T05:24:38;2.20;;;2.10;;
33152;SDS011;19509;43.862;26.176;2022-09-27T05:27:03;2.10;;;2.07;;
33152;SDS011;19509;43.862;26.176;2022-09-27T05:29:33;2.23;;;2.13;;
33152;SDS011;19509;43.862;26.176;2022-09-27T05:31:59;2.10;;;2.10;;
33152;SDS011;19509;43.862;26.176;2022-09-27T05:34:25;1.90;;;1.90;;
33152;SDS011;19509;43.862;26.176;2022-09-27T05:36:51;1.90;;;1.90;;
33152;SDS011;19509;43.862;26.176;2022-09-27T05:39:16;2.00;;;2.00;;
33152;SDS011;19509;43.862;26.176;2022-09-27T05:41:43;1.83;;;1.83;;
33152;SDS011;19509;43.862;26.176;2022-09-27T05:44:09;2.20;;;2.10;;
33152;SDS011;19509;43.862;26.176;2022-09-27T05:46:35;2.10;;;2.10;;
33152;SDS011;19509;43.862;26.176;2022-09-27T05:49:00;2.10;;;2.10;;
33152;SDS011;19509;43.862;26.176;2022-09-27T05:51:26;2.10;;;2.00;;
33152;SDS011;19509;43.862;26.176;2022-09-27T05:53:52;1.90;;;1.90;;
33152;SDS011;19509;43.862;26.176;2022-09-27T05:56:17;1.80;;;1.80;;
33152;SDS011;19509;43.862;26.176;2022-09-27T05:58:43;1.80;;;1.80;;
33152;SDS011;19509;43.862;26.176;2022-09-27T06:01:09;1.80;;;1.80;;
33152;SDS011;19509;43.862;26.176;2022-09-27T06:03:34;1.90;;;1.90;;
33152;SDS011;19509;43.862;26.176;2022-09-27T06:06:01;1.80;;;1.80;;
33152;SDS011;19509;43.862;26.176;2022-09-27T06:08:31;1.93;;;1.83;;
33152;SDS011;19509;43.862;26.176;2022-09-27T06:11:03;2.03;;;1.83;;
33152;SDS011;19509;43.862;26.176;2022-09-27T06:13:29;1.80;;;1.80;;
33152;SDS011;19509;43.862;26.176;2022-09-27T06:15:57;1.90;;;1.90;;
33152;SDS011;19509;43.862;26.176;2022-09-27T06:18:23;1.70;;;1.70;;
33152;SDS011;19509;43.862;26.176;2022-09-27T06:20:49;1.73;;;1.73;;
33152;SDS011;19509;43.862;26.176;2022-09-27T06:23:15;1.90;;;1.90;;
33152;SDS011;19509;43.862;26.176;2022-09-27T06:25:46;2.00;;;1.90;;
33152;SDS011;19509;43.862;26.176;2022-09-27T06:28:13;2.00;;;1.90;;
33152;SDS011;19509;43.862;26.176;2022-09-27T06:30:41;2.70;;;2.13;;
33152;SDS011;19509;43.862;26.176;2022-09-27T06:33:09;2.00;;;2.00;;
33152;SDS011;19509;43.862;26.176;2022-09-27T06:35:36;1.87;;;1.87;;
33152;SDS011;19509;43.862;26.176;2022-09-27T06:38:03;1.90;;;1.90;;
33152;SDS011;19509;43.862;26.176;2022-09-27T06:40:32;2.10;;;2.10;;
33152;SDS011;19509;43.862;26.176;2022-09-27T06:43:04;1.90;;;1.80;;
33152;SDS011;19509;43.862;26.176;2022-09-27T06:45:32;1.70;;;1.70;;
33152;SDS011;19509;43.862;26.176;2022-09-27T06:48:00;1.80;;;1.80;;
33152;SDS011;19509;43.862;26.176;2022-09-27T06:50:28;1.90;;;1.90;;
33152;SDS011;19509;43.862;26.176;2022-09-27T06:52:57;2.03;;;1.80;;
33152;SDS011;19509;43.862;26.176;2022-09-27T06:55:23;1.70;;;1.70;;
33152;SDS011;19509;43.862;26.176;2022-09-27T06:57:53;1.93;;;1.90;;
33152;SDS011;19509;43.862;26.176;2022-09-27T07:00:37;1.83;;;1.73;;
33152;SDS011;19509;43.862;26.176;2022-09-27T07:03:03;1.93;;;1.90;;
33152;SDS011;19509;43.862;26.176;2022-09-27T07:05:29;1.73;;;1.73;;
33152;SDS011;19509;43.862;26.176;2022-09-27T07:07:55;2.07;;;2.00;;
33152;SDS011;19509;43.862;26.176;2022-09-27T07:10:25;1.73;;;1.73;;
33152;SDS011;19509;43.862;26.176;2022-09-27T07:12:56;1.80;;;1.80;;
33152;SDS011;19509;43.862;26.176;2022-09-27T07:15:29;1.80;;;1.80;;
33152;SDS011;19509;43.862;26.176;2022-09-27T07:17:56;1.80;;;1.80;;
33152;SDS011;19509;43.862;26.176;2022-09-27T07:20:23;1.77;;;1.77;;
33152;SDS011;19509;43.862;26.176;2022-09-27T07:22:49;1.80;;;1.80;;
33152;SDS011;19509;43.862;26.176;2022-09-27T07:25:15;1.70;;;1.70;;
33152;SDS011;19509;43.862;26.176;2022-09-27T07:27:41;1.90;;;1.90;;
33152;SDS011;19509;43.862;26.176;2022-09-27T07:30:07;1.87;;;1.87;;
33152;SDS011;19509;43.862;26.176;2022-09-27T07:32:34;1.70;;;1.60;;
33152;SDS011;19509;43.862;26.176;2022-09-27T07:35:01;1.80;;;1.80;;
33152;SDS011;19509;43.862;26.176;2022-09-27T07:37:30;1.70;;;1.60;;
33152;SDS011;19509;43.862;26.176;2022-09-27T07:39:56;1.90;;;1.80;;
33152;SDS011;19509;43.862;26.176;2022-09-27T07:42:22;1.60;;;1.50;;
33152;SDS011;19509;43.862;26.176;2022-09-27T07:44:48;1.37;;;1.30;;
33152;SDS011;19509;43.862;26.176;2022-09-27T07:47:14;1.30;;;1.30;;
33152;SDS011;19509;43.862;26.176;2022-09-27T07:49:39;1.10;;;1.10;;
33152;SDS011;19509;43.862;26.176;2022-09-27T07:52:04;1.20;;;1.20;;
33152;SDS011;19509;43.862;26.176;2022-09-27T07:54:30;1.20;;;1.20;;
33152;SDS011;19509;43.862;26.176;2022-09-27T07:56:55;1.33;;;1.30;;
33152;SDS011;19509;43.862;26.176;2022-09-27T07:59:21;1.30;;;1.30;;
33152;SDS011;19509;43.862;26.176;2022-09-27T08:01:47;1.20;;;1.20;;
33152;SDS011;19509;43.862;26.176;2022-09-27T08:04:12;1.30;;;1.30;;
33152;SDS011;19509;43.862;26.176;2022-09-27T08:06:38;1.10;;;1.10;;
33152;SDS011;19509;43.862;26.176;2022-09-27T08:09:06;1.20;;;1.20;;
33152;SDS011;19509;43.862;26.176;2022-09-27T08:11:33;1.10;;;1.10;;
33152;SDS011;19509;43.862;26.176;2022-09-27T08:14:00;1.20;;;1.20;;
33152;SDS011;19509;43.862;26.176;2022-09-27T08:16:26;1.20;;;1.20;;
33152;SDS011;19509;43.862;26.176;2022-09-27T08:18:51;1.10;;;1.10;;
33152;SDS011;19509;43.862;26.176;2022-09-27T08:21:17;1.37;;;1.37;;
33152;SDS011;19509;43.862;26.176;2022-09-27T08:23:42;1.30;;;1.30;;
33152;SDS011;19509;43.862;26.176;2022-09-27T08:26:08;1.30;;;1.30;;
33152;SDS011;19509;43.862;26.176;2022-09-27T08:28:34;1.30;;;1.30;;
33152;SDS011;19509;43.862;26.176;2022-09-27T08:30:59;1.17;;;1.17;;
33152;SDS011;19509;43.862;26.176;2022-09-27T08:33:25;1.30;;;1.30;;
33152;SDS011;19509;43.862;26.176;2022-09-27T08:35:51;1.30;;;1.30;;
33152;SDS011;19509;43.862;26.176;2022-09-27T08:38:17;1.40;;;1.30;;
33152;SDS011;19509;43.862;26.176;2022-09-27T08:45:58;1.50;;;1.50;;
33152;SDS011;19509;43.862;26.176;2022-09-27T08:48:27;1.30;;;1.30;;
33152;SDS011;19509;43.862;26.176;2022-09-27T08:50:54;1.30;;;1.30;;
33152;SDS011;19509;43.862;26.176;2022-09-27T08:53:26;1.40;;;1.40;;
33152;SDS011;19509;43.862;26.176;2022-09-27T08:55:58;1.77;;;1.50;;
33152;SDS011;19509;43.862;26.176;2022-09-27T09:01:00;1.20;;;1.20;;
33152;SDS011;19509;43.862;26.176;2022-09-27T09:03:38;1.37;;;1.33;;
33152;SDS011;19509;43.862;26.176;2022-09-27T09:06:16;1.37;;;1.37;;
33152;SDS011;19509;43.862;26.176;2022-09-27T09:20:53;1.70;;;1.70;;
33152;SDS011;19509;43.862;26.176;2022-09-27T09:31:25;1.60;;;1.60;;
33152;SDS011;19509;43.862;26.176;2022-09-27T09:34:15;1.80;;;1.80;;
33152;SDS011;19509;43.862;26.176;2022-09-27T09:39:41;1.50;;;1.50;;
33152;SDS011;19509;43.862;26.176;2022-09-27T09:42:12;1.53;;;1.53;;
33152;SDS011;19509;43.862;26.176;2022-09-27T09:47:35;1.50;;;1.50;;
33152;SDS011;19509;43.862;26.176;2022-09-27T09:50:05;1.50;;;1.40;;
33152;SDS011;19509;43.862;26.176;2022-09-27T09:52:42;1.40;;;1.40;;
33152;SDS011;19509;43.862;26.176;2022-09-27T09:55:20;1.40;;;1.40;;
33152;SDS011;19509;43.862;26.176;2022-09-27T10:00:49;1.40;;;1.40;;
33152;SDS011;19509;43.862;26.176;2022-09-27T10:03:17;1.40;;;1.40;;
33152;SDS011;19509;43.862;26.176;2022-09-27T10:05:43;1.30;;;1.30;;
33152;SDS011;19509;43.862;26.176;2022-09-27T10:08:19;1.40;;;1.40;;
33152;SDS011;19509;43.862;26.176;2022-09-27T10:10:46;1.50;;;1.50;;
33152;SDS011;19509;43.862;26.176;2022-09-27T10:13:14;1.60;;;1.60;;
33152;SDS011;19509;43.862;26.176;2022-09-27T10:15:41;1.30;;;1.30;;
33152;SDS011;19509;43.862;26.176;2022-09-27T10:18:11;1.50;;;1.40;;
33152;SDS011;19509;43.862;26.176;2022-09-27T10:20:42;1.47;;;1.47;;
33152;SDS011;19509;43.862;26.176;2022-09-27T10:23:14;1.47;;;1.47;;
33152;SDS011;19509;43.862;26.176;2022-09-27T10:25:50;1.30;;;1.30;;
33152;SDS011;19509;43.862;26.176;2022-09-27T10:28:30;1.50;;;1.50;;
33152;SDS011;19509;43.862;26.176;2022-09-27T10:31:05;1.33;;;1.33;;
33152;SDS011;19509;43.862;26.176;2022-09-27T10:33:33;1.20;;;1.20;;
33152;SDS011;19509;43.862;26.176;2022-09-27T10:36:01;1.50;;;1.50;;
33152;SDS011;19509;43.862;26.176;2022-09-27T10:38:34;1.40;;;1.40;;
33152;SDS011;19509;43.862;26.176;2022-09-27T10:43:46;1.60;;;1.60;;
33152;SDS011;19509;43.862;26.176;2022-09-27T10:46:14;1.70;;;1.70;;
33152;SDS011;19509;43.862;26.176;2022-09-27T10:49:07;1.60;;;1.60;;
33152;SDS011;19509;43.862;26.176;2022-09-27T10:51:45;1.37;;;1.37;;
33152;SDS011;19509;43.862;26.176;2022-09-27T10:54:17;1.50;;;1.50;;
33152;SDS011;19509;43.862;26.176;2022-09-27T10:56:45;1.30;;;1.30;;
33152;SDS011;19509;43.862;26.176;2022-09-27T10:59:23;1.30;;;1.30;;
33152;SDS011;19509;43.862;26.176;2022-09-27T11:01:50;1.20;;;1.20;;
33152;SDS011;19509;43.862;26.176;2022-09-27T11:04:30;1.20;;;1.20;;
33152;SDS011;19509;43.862;26.176;2022-09-27T11:07:05;1.17;;;1.17;;
33152;SDS011;19509;43.862;26.176;2022-09-27T11:09:43;1.50;;;1.50;;
33152;SDS011;19509;43.862;26.176;2022-09-27T11:12:11;1.10;;;1.10;;
33152;SDS011;19509;43.862;26.176;2022-09-27T11:14:37;1.00;;;1.00;;
33152;SDS011;19509;43.862;26.176;2022-09-27T11:22:40;1.20;;;1.20;;
33152;SDS011;19509;43.862;26.176;2022-09-27T11:26:09;1.20;;;1.20;;
33152;SDS011;19509;43.862;26.176;2022-09-27T11:31:38;1.10;;;1.10;;
33152;SDS011;19509;43.862;26.176;2022-09-27T11:39:55;1.10;;;1.10;;
33152;SDS011;19509;43.862;26.176;2022-09-27T11:42:52;1.20;;;1.20;;
33152;SDS011;19509;43.862;26.176;2022-09-27T12:01:42;1.20;;;1.20;;
33152;SDS011;19509;43.862;26.176;2022-09-27T12:05:04;1.03;;;1.03;;
33152;SDS011;19509;43.862;26.176;2022-09-27T12:10:02;1.10;;;1.10;;
33152;SDS011;19509;43.862;26.176;2022-09-27T12:12:34;1.30;;;1.30;;
33152;SDS011;19509;43.862;26.176;2022-09-27T12:18:13;0.97;;;0.97;;
33152;SDS011;19509;43.862;26.176;2022-09-27T12:20:43;1.20;;;1.20;;
33152;SDS011;19509;43.862;26.176;2022-09-27T12:23:14;1.00;;;1.00;;
33152;SDS011;19509;43.862;26.176;2022-09-27T12:25:41;1.10;;;1.10;;
33152;SDS011;19509;43.862;26.176;2022-09-27T12:28:13;1.20;;;1.20;;
33152;SDS011;19509;43.862;26.176;2022-09-27T12:30:47;1.10;;;1.10;;
33152;SDS011;19509;43.862;26.176;2022-09-27T12:33:32;1.10;;;1.10;;
33152;SDS011;19509;43.862;26.176;2022-09-27T12:36:08;1.10;;;1.10;;
33152;SDS011;19509;43.862;26.176;2022-09-27T12:38:40;1.07;;;1.07;;
33152;SDS011;19509;43.862;26.176;2022-09-27T12:41:18;1.20;;;1.20;;
33152;SDS011;19509;43.862;26.176;2022-09-27T12:43:48;1.27;;;1.27;;
33152;SDS011;19509;43.862;26.176;2022-09-27T12:49:02;1.00;;;1.00;;
33152;SDS011;19509;43.862;26.176;2022-09-27T12:51:42;1.10;;;1.10;;
33152;SDS011;19509;43.862;26.176;2022-09-27T12:54:30;1.10;;;1.10;;
33152;SDS011;19509;43.862;26.176;2022-09-27T12:57:07;1.10;;;1.10;;
33152;SDS011;19509;43.862;26.176;2022-09-27T13:10:18;1.40;;;1.30;;
33152;SDS011;19509;43.862;26.176;2022-09-27T13:13:09;1.10;;;1.10;;
33152;SDS011;19509;43.862;26.176;2022-09-27T13:15:37;1.10;;;1.10;;
33152;SDS011;19509;43.862;26.176;2022-09-27T13:18:05;1.20;;;1.20;;
33152;SDS011;19509;43.862;26.176;2022-09-27T13:20:51;1.50;;;1.50;;
33152;SDS011;19509;43.862;26.176;2022-09-27T13:25:55;1.30;;;1.20;;
33152;SDS011;19509;43.862;26.176;2022-09-27T13:30:59;1.40;;;1.40;;
33152;SDS011;19509;43.862;26.176;2022-09-27T13:33:50;1.20;;;1.20;;
33152;SDS011;19509;43.862;26.176;2022-09-27T13:41:25;1.20;;;1.20;;
33152;SDS011;19509;43.862;26.176;2022-09-27T13:44:29;1.00;;;1.00;;
33152;SDS011;19509;43.862;26.176;2022-09-27T13:49:27;1.03;;;1.03;;
33152;SDS011;19509;43.862;26.176;2022-09-27T13:52:01;0.90;;;0.90;;
33152;SDS011;19509;43.862;26.176;2022-09-27T14:00:22;1.00;;;1.00;;
33152;SDS011;19509;43.862;26.176;2022-09-27T14:05:40;1.00;;;1.00;;
33152;SDS011;19509;43.862;26.176;2022-09-27T14:08:23;0.90;;;0.90;;
33152;SDS011;19509;43.862;26.176;2022-09-27T14:10:53;1.00;;;1.00;;
33152;SDS011;19509;43.862;26.176;2022-09-27T14:13:19;1.00;;;1.00;;
33152;SDS011;19509;43.862;26.176;2022-09-27T14:15:48;1.00;;;1.00;;
33152;SDS011;19509;43.862;26.176;2022-09-27T14:18:14;1.10;;;1.10;;
33152;SDS011;19509;43.862;26.176;2022-09-27T14:20:41;1.10;;;1.10;;
33152;SDS011;19509;43.862;26.176;2022-09-27T14:23:17;1.03;;;1.03;;
33152;SDS011;19509;43.862;26.176;2022-09-27T14:25:47;1.00;;;1.00;;
33152;SDS011;19509;43.862;26.176;2022-09-27T14:28:24;1.10;;;1.10;;
33152;SDS011;19509;43.862;26.176;2022-09-27T14:33:41;1.20;;;1.20;;
33152;SDS011;19509;43.862;26.176;2022-09-27T14:36:25;1.10;;;1.10;;
33152;SDS011;19509;43.862;26.176;2022-09-27T14:39:24;1.10;;;1.10;;
33152;SDS011;19509;43.862;26.176;2022-09-27T14:41:59;1.07;;;1.07;;
33152;SDS011;19509;43.862;26.176;2022-09-27T14:44:28;1.00;;;1.00;;
33152;SDS011;19509;43.862;26.176;2022-09-27T14:47:08;0.93;;;0.93;;
33152;SDS011;19509;43.862;26.176;2022-09-27T14:49:47;0.97;;;0.97;;
33152;SDS011;19509;43.862;26.176;2022-09-27T14:52:19;1.00;;;1.00;;
33152;SDS011;19509;43.862;26.176;2022-09-27T14:54:56;1.10;;;1.10;;
33152;SDS011;19509;43.862;26.176;2022-09-27T14:57:25;1.27;;;1.27;;
33152;SDS011;19509;43.862;26.176;2022-09-27T14:59:52;1.00;;;1.00;;
33152;SDS011;19509;43.862;26.176;2022-09-27T15:02:18;1.30;;;1.30;;
33152;SDS011;19509;43.862;26.176;2022-09-27T15:04:46;1.10;;;1.10;;
33152;SDS011;19509;43.862;26.176;2022-09-27T15:07:13;1.00;;;1.00;;
33152;SDS011;19509;43.862;26.176;2022-09-27T15:09:41;1.30;;;1.30;;
33152;SDS011;19509;43.862;26.176;2022-09-27T15:12:08;1.10;;;1.10;;
33152;SDS011;19509;43.862;26.176;2022-09-27T15:14:38;1.23;;;1.23;;
33152;SDS011;19509;43.862;26.176;2022-09-27T15:17:16;1.20;;;1.20;;
33152;SDS011;19509;43.862;26.176;2022-09-27T15:23:23;1.20;;;1.20;;
33152;SDS011;19509;43.862;26.176;2022-09-27T15:25:59;1.70;;;1.60;;
33152;SDS011;19509;43.862;26.176;2022-09-27T15:28:31;1.60;;;1.60;;
33152;SDS011;19509;43.862;26.176;2022-09-27T15:31:02;1.50;;;1.50;;
33152;SDS011;19509;43.862;26.176;2022-09-27T15:33:29;2.00;;;2.00;;
33152;SDS011;19509;43.862;26.176;2022-09-27T15:35:57;2.23;;;2.23;;
33152;SDS011;19509;43.862;26.176;2022-09-27T15:41:11;7.00;;;6.60;;
33152;SDS011;19509;43.862;26.176;2022-09-27T15:43:42;3.17;;;2.97;;
33152;SDS011;19509;43.862;26.176;2022-09-27T15:51:41;2.97;;;2.77;;
33152;SDS011;19509;43.862;26.176;2022-09-27T15:54:07;2.13;;;2.00;;
33152;SDS011;19509;43.862;26.176;2022-09-27T15:56:32;1.83;;;1.83;;
33152;SDS011;19509;43.862;26.176;2022-09-27T15:58:59;1.40;;;1.40;;
33152;SDS011;19509;43.862;26.176;2022-09-27T16:01:24;1.30;;;1.30;;
33152;SDS011;19509;43.862;26.176;2022-09-27T16:03:50;1.77;;;1.67;;
33152;SDS011;19509;43.862;26.176;2022-09-27T16:06:15;1.50;;;1.50;;
33152;SDS011;19509;43.862;26.176;2022-09-27T16:08:42;1.73;;;1.73;;
33152;SDS011;19509;43.862;26.176;2022-09-27T16:11:11;1.70;;;1.70;;
33152;SDS011;19509;43.862;26.176;2022-09-27T16:13:38;1.70;;;1.70;;
33152;SDS011;19509;43.862;26.176;2022-09-27T16:16:03;1.70;;;1.70;;
33152;SDS011;19509;43.862;26.176;2022-09-27T16:18:29;1.80;;;1.80;;
33152;SDS011;19509;43.862;26.176;2022-09-27T16:20:57;1.93;;;1.83;;
33152;SDS011;19509;43.862;26.176;2022-09-27T16:23:23;1.70;;;1.70;;
33152;SDS011;19509;43.862;26.176;2022-09-27T16:25:50;2.40;;;2.30;;
33152;SDS011;19509;43.862;26.176;2022-09-27T16:28:16;2.87;;;2.77;;
33152;SDS011;19509;43.862;26.176;2022-09-27T16:30:42;2.93;;;2.83;;
33152;SDS011;19509;43.862;26.176;2022-09-27T16:33:09;2.90;;;2.80;;
33152;SDS011;19509;43.862;26.176;2022-09-27T16:35:34;2.60;;;2.50;;
33152;SDS011;19509;43.862;26.176;2022-09-27T16:38:05;2.23;;;2.13;;
33152;SDS011;19509;43.862;26.176;2022-09-27T16:40:31;1.70;;;1.70;;
33152;SDS011;19509;43.862;26.176;2022-09-27T16:42:56;1.70;;;1.70;;
33152;SDS011;19509;43.862;26.176;2022-09-27T16:45:22;3.83;;;3.73;;
33152;SDS011;19509;43.862;26.176;2022-09-27T16:47:48;3.80;;;3.70;;
33152;SDS011;19509;43.862;26.176;2022-09-27T16:50:14;4.40;;;4.20;;
33152;SDS011;19509;43.862;26.176;2022-09-27T16:52:58;3.70;;;3.60;;
33152;SDS011;19509;43.862;26.176;2022-09-27T16:55:24;2.93;;;2.73;;
33152;SDS011;19509;43.862;26.176;2022-09-27T16:57:52;1.93;;;1.93;;
33152;SDS011;19509;43.862;26.176;2022-09-27T17:00:18;2.30;;;2.20;;
33152;SDS011;19509;43.862;26.176;2022-09-27T17:02:47;2.60;;;2.50;;
33152;SDS011;19509;43.862;26.176;2022-09-27T17:05:13;2.50;;;2.50;;
33152;SDS011;19509;43.862;26.176;2022-09-27T17:07:39;2.60;;;2.50;;
33152;SDS011;19509;43.862;26.176;2022-09-27T17:10:05;3.30;;;2.40;;
33152;SDS011;19509;43.862;26.176;2022-09-27T17:12:31;2.40;;;2.30;;
33152;SDS011;19509;43.862;26.176;2022-09-27T17:14:57;2.30;;;2.20;;
33152;SDS011;19509;43.862;26.176;2022-09-27T17:17:23;2.40;;;2.30;;
33152;SDS011;19509;43.862;26.176;2022-09-27T17:19:49;2.20;;;2.20;;
33152;SDS011;19509;43.862;26.176;2022-09-27T17:22:15;2.10;;;2.10;;
33152;SDS011;19509;43.862;26.176;2022-09-27T17:24:41;2.20;;;2.10;;
33152;SDS011;19509;43.862;26.176;2022-09-27T17:27:06;2.13;;;2.10;;
33152;SDS011;19509;43.862;26.176;2022-09-27T17:29:32;2.20;;;2.10;;
33152;SDS011;19509;43.862;26.176;2022-09-27T17:31:57;2.30;;;2.30;;
33152;SDS011;19509;43.862;26.176;2022-09-27T17:34:24;2.30;;;2.20;;
33152;SDS011;19509;43.862;26.176;2022-09-27T17:36:51;2.30;;;2.10;;
33152;SDS011;19509;43.862;26.176;2022-09-27T17:39:17;2.43;;;2.33;;